createdAt,value
2023-01-30T00:01:33.835Z,98968.44
2023-01-30T00:04:02.126Z,98969.73
2023-01-30T00:06:31.517Z,98972.83
2023-01-30T00:08:59.789Z,98973.44
2023-01-30T00:11:32.360Z,98972.56
2023-01-30T00:14:01.863Z,98970.84
2023-01-30T00:16:33.252Z,98967.15
2023-01-30T00:19:04.553Z,98961.14
2023-01-30T00:21:33.136Z,98955.91
2023-01-30T00:24:01.821Z,98948.16
2023-01-30T00:26:30.327Z,98945.19
2023-01-30T00:28:59.295Z,98943.64
2023-01-30T00:31:31.381Z,98939.95
2023-01-30T00:34:00.038Z,98939.08
2023-01-30T00:36:28.625Z,98932.13
2023-01-30T00:38:58.656Z,98928.18
2023-01-30T00:41:46.879Z,98927.07
2023-01-30T00:44:34.197Z,98922.48
2023-01-30T00:47:05.543Z,98919.78
2023-01-30T00:49:36.580Z,98917.34
2023-01-30T00:52:05.484Z,98919.34
2023-01-30T00:54:34.776Z,98922.09
2023-01-30T00:57:03.144Z,98918.26
2023-01-30T00:59:33.159Z,98915.33
2023-01-30T01:02:01.790Z,98914.59
2023-01-30T01:04:33.193Z,98917.30
2023-01-30T01:07:04.442Z,98914.29
2023-01-30T01:09:32.814Z,98909.10
2023-01-30T01:12:01.393Z,98905.04
2023-01-30T01:14:31.099Z,98903.00
2023-01-30T01:17:00.837Z,98895.19
2023-01-30T01:19:29.493Z,98889.16
2023-01-30T01:21:58.174Z,98881.83
2023-01-30T01:24:28.088Z,98873.65
2023-01-30T01:26:56.465Z,98871.26
2023-01-30T01:29:25.048Z,98869.72
2023-01-30T01:31:53.538Z,98868.05
2023-01-30T01:34:24.357Z,98864.41
2023-01-30T01:36:53.874Z,98863.15
2023-01-30T01:39:23.463Z,98854.38
2023-01-30T01:41:52.051Z,98844.34
2023-01-30T01:44:20.943Z,98838.69
2023-01-30T01:46:55.574Z,98836.35
2023-01-30T01:49:32.947Z,98834.20
2023-01-30T01:52:04.409Z,98832.36
2023-01-30T01:54:54.278Z,98831.96
2023-01-30T01:57:32.995Z,98826.20
2023-01-30T02:00:11.829Z,98822.59
2023-01-30T02:02:46.746Z,98819.42
2023-01-30T02:05:16.369Z,98815.91
2023-01-30T02:07:46.579Z,98815.55
2023-01-30T02:10:22.015Z,98803.52
2023-01-30T02:12:50.922Z,98797.70
2023-01-30T02:15:20.087Z,98790.38
2023-01-30T02:17:48.637Z,98794.72
2023-01-30T02:20:27.302Z,98792.88
2023-01-30T02:23:08.066Z,98788.10
2023-01-30T02:25:56.496Z,98787.89
2023-01-30T02:28:34.509Z,98785.22
2023-01-30T02:31:21.381Z,98785.13
2023-01-30T02:33:53.586Z,98780.10
2023-01-30T02:36:42.034Z,98775.87
2023-01-30T02:39:19.727Z,98773.71
2023-01-30T02:41:58.255Z,98776.02
2023-01-30T02:44:50.486Z,98771.81
2023-01-30T02:47:28.583Z,98766.22
2023-01-30T02:50:00.934Z,98764.73
2023-01-30T02:52:29.943Z,98758.42
2023-01-30T02:54:58.628Z,98754.50
2023-01-30T02:57:27.566Z,98754.95
2023-01-30T02:59:59.684Z,98751.29
2023-01-30T03:02:40.502Z,98750.83
2023-01-30T03:05:37.091Z,98753.28
2023-01-30T03:08:18.405Z,98748.21
2023-01-30T03:11:08.349Z,98745.00
2023-01-30T03:13:55.393Z,98741.84
2023-01-30T03:16:27.152Z,98739.94
2023-01-30T03:18:56.005Z,98732.86
2023-01-30T03:21:24.487Z,98728.04
2023-01-30T03:23:53.892Z,98722.92
2023-01-30T03:26:24.714Z,98717.86
2023-01-30T03:28:53.302Z,98716.61
2023-01-30T03:31:22.089Z,98716.65
2023-01-30T03:33:50.777Z,98716.42
2023-01-30T03:36:19.459Z,98709.78
2023-01-30T03:38:48.041Z,98704.83
2023-01-30T03:41:16.617Z,98699.80
2023-01-30T03:43:45.207Z,98698.15
2023-01-30T03:46:14.019Z,98696.20
2023-01-30T03:48:42.671Z,98691.23
2023-01-30T03:51:13.414Z,98689.73
2023-01-30T03:53:42.186Z,98689.72
2023-01-30T03:56:11.512Z,98690.48
2023-01-30T03:58:41.511Z,98685.90
2023-01-30T04:01:26.775Z,98681.27
2023-01-30T04:03:55.868Z,98670.11
2023-01-30T04:06:24.367Z,98671.34
2023-01-30T04:08:54.053Z,98671.23
2023-01-30T04:11:32.976Z,98666.60
2023-01-30T04:14:01.664Z,98666.63
2023-01-30T04:16:30.465Z,98669.21
2023-01-30T04:19:17.459Z,98664.85
2023-01-30T04:21:46.462Z,98656.74
2023-01-30T04:24:15.197Z,98655.02
2023-01-30T04:26:43.695Z,98656.05
2023-01-30T04:29:12.823Z,98658.85
2023-01-30T04:31:41.756Z,98651.20
2023-01-30T04:34:22.779Z,98647.39
2023-01-30T04:36:51.355Z,98647.61
2023-01-30T04:39:21.224Z,98642.30
2023-01-30T04:41:50.979Z,98637.38
2023-01-30T04:44:19.248Z,98634.39
2023-01-30T04:47:09.548Z,98629.00
2023-01-30T04:49:38.427Z,98620.06
2023-01-30T04:52:07.417Z,98617.58
2023-01-30T04:54:38.763Z,98616.51
2023-01-30T04:57:07.858Z,98614.52
2023-01-30T04:59:36.440Z,98609.72
2023-01-30T05:02:06.648Z,98604.91
2023-01-30T05:04:36.058Z,98603.39
2023-01-30T05:07:04.537Z,98604.23
2023-01-30T05:09:33.328Z,98599.81
2023-01-30T05:12:01.704Z,98600.36
2023-01-30T05:14:30.997Z,98600.31
2023-01-30T05:16:59.595Z,98595.88
2023-01-30T05:19:27.958Z,98593.11
2023-01-30T05:21:56.950Z,98585.08
2023-01-30T05:24:25.447Z,98585.06
2023-01-30T05:26:53.725Z,98583.88
2023-01-30T05:29:22.017Z,98580.23
2023-01-30T05:31:50.380Z,98576.67
2023-01-30T05:34:18.946Z,98573.85
2023-01-30T05:36:47.516Z,98574.52
2023-01-30T05:39:16.095Z,98574.19
2023-01-30T05:41:44.791Z,98571.29
2023-01-30T05:44:13.164Z,98562.13
2023-01-30T05:46:41.597Z,98558.95
2023-01-30T05:49:10.220Z,98555.88
2023-01-30T05:51:39.000Z,98554.17
2023-01-30T05:54:09.021Z,98550.98
2023-01-30T05:56:37.810Z,98549.56
2023-01-30T05:59:06.180Z,98551.21
2023-01-30T06:01:37.832Z,98549.36
2023-01-30T06:04:07.009Z,98552.59
2023-01-30T06:06:35.412Z,98551.12
2023-01-30T06:09:04.923Z,98553.05
2023-01-30T06:11:33.185Z,98552.06
2023-01-30T06:14:01.775Z,98551.23
2023-01-30T06:16:30.674Z,98549.02
2023-01-30T06:18:59.566Z,98544.06
2023-01-30T06:21:28.638Z,98535.83
2023-01-30T06:23:57.121Z,98533.17
2023-01-30T06:26:25.831Z,98532.90
2023-01-30T06:28:54.382Z,98528.95
2023-01-30T06:31:22.904Z,98523.52
2023-01-30T06:33:51.438Z,98518.80
2023-01-30T06:36:19.927Z,98515.07
2023-01-30T06:38:49.014Z,98518.02
2023-01-30T06:41:17.417Z,98519.55
2023-01-30T06:43:46.001Z,98519.79
2023-01-30T06:46:15.569Z,98512.31
2023-01-30T06:48:45.262Z,98503.92
2023-01-30T06:51:13.660Z,98501.08
2023-01-30T06:53:43.999Z,98497.70
2023-01-30T06:56:12.388Z,98496.36
2023-01-30T06:58:40.855Z,98489.33
2023-01-30T07:01:10.805Z,98487.84
2023-01-30T07:03:39.348Z,98483.86
2023-01-30T07:06:07.620Z,98480.57
2023-01-30T07:08:37.697Z,98477.35
2023-01-30T07:11:06.259Z,98471.70
2023-01-30T07:13:34.817Z,98467.55
2023-01-30T07:16:03.139Z,98464.14
2023-01-30T07:18:32.875Z,98463.37
2023-01-30T07:21:01.463Z,98463.38
2023-01-30T07:23:29.928Z,98465.21
2023-01-30T07:25:58.305Z,98464.85
2023-01-30T07:28:26.752Z,98463.05
2023-01-30T07:30:55.343Z,98460.19
2023-01-30T07:33:24.020Z,98456.50
2023-01-30T07:35:52.317Z,98455.34
2023-01-30T07:38:20.520Z,98452.89
2023-01-30T07:40:48.871Z,98449.20
2023-01-30T07:43:17.289Z,98440.67
2023-01-30T07:45:47.504Z,98441.19
2023-01-30T07:48:19.569Z,98438.24
2023-01-30T07:50:48.836Z,98430.15
2023-01-30T07:53:18.669Z,98426.20
2023-01-30T07:55:47.230Z,98420.36
2023-01-30T07:58:16.327Z,98418.90
2023-01-30T08:00:45.234Z,98414.80
2023-01-30T08:03:14.509Z,98411.05
2023-01-30T08:05:44.222Z,98410.45
2023-01-30T08:08:12.937Z,98408.92
2023-01-30T08:10:41.681Z,98406.61
2023-01-30T08:13:09.964Z,98402.30
2023-01-30T08:15:38.543Z,98401.23
2023-01-30T08:18:08.554Z,98392.00
2023-01-30T08:20:37.728Z,98383.33
2023-01-30T08:23:07.760Z,98375.11
2023-01-30T08:25:38.288Z,98367.16
2023-01-30T08:28:06.767Z,98360.54
2023-01-30T08:30:35.476Z,98358.33
2023-01-30T08:33:04.417Z,98361.40
2023-01-30T08:35:34.102Z,98360.36
2023-01-30T08:38:09.210Z,98352.73
2023-01-30T08:40:38.076Z,98348.48
2023-01-30T08:43:07.168Z,98345.63
2023-01-30T08:45:36.164Z,98345.54
2023-01-30T08:48:06.115Z,98343.30
2023-01-30T08:50:35.380Z,98333.20
2023-01-30T08:53:07.938Z,98327.35
2023-01-30T08:55:36.526Z,98319.73
2023-01-30T08:58:05.307Z,98316.35
2023-01-30T09:00:34.104Z,98312.67
2023-01-30T09:03:02.985Z,98308.10
2023-01-30T09:05:36.277Z,98308.91
2023-01-30T09:08:05.922Z,98300.14
2023-01-30T09:10:34.673Z,98294.98
2023-01-30T09:13:23.127Z,98286.40
2023-01-30T09:15:54.673Z,98281.46
2023-01-30T09:18:24.027Z,98274.89
2023-01-30T09:20:53.954Z,98269.23
2023-01-30T09:23:22.385Z,98263.03
2023-01-30T09:25:51.858Z,98259.14
2023-01-30T09:28:22.082Z,98255.35
2023-01-30T09:30:50.480Z,98250.48
2023-01-30T09:33:20.513Z,98245.16
2023-01-30T09:35:49.512Z,98242.56
2023-01-30T09:38:18.168Z,98241.73
2023-01-30T09:41:47.706Z,98241.89
2023-01-30T09:44:46.471Z,98236.70
2023-01-30T09:47:18.575Z,98231.04
2023-01-30T09:50:03.571Z,98228.02
2023-01-30T09:52:37.990Z,98224.20
2023-01-30T09:55:23.877Z,98215.57
2023-01-30T09:57:52.568Z,98207.10
2023-01-30T10:00:37.422Z,98198.94
2023-01-30T10:03:09.002Z,98195.11
2023-01-30T10:05:48.856Z,98191.02
2023-01-30T10:08:36.157Z,98186.97
2023-01-30T10:11:16.196Z,98180.55
2023-01-30T10:14:09.367Z,98175.61
2023-01-30T10:17:01.452Z,98174.20
2023-01-30T10:19:50.116Z,98168.85
2023-01-30T10:22:24.655Z,98156.45
2023-01-30T10:25:20.817Z,98148.30
2023-01-30T10:27:54.913Z,98144.05
2023-01-30T10:30:23.313Z,98140.02
2023-01-30T10:33:02.389Z,98135.17
2023-01-30T10:35:34.310Z,98129.28
2023-01-30T10:38:22.227Z,98127.18
2023-01-30T10:41:05.071Z,98123.45
2023-01-30T10:43:46.006Z,98113.47
2023-01-30T10:46:43.547Z,98110.48
2023-01-30T10:49:15.716Z,98106.89
2023-01-30T10:51:55.657Z,98103.39
2023-01-30T10:54:32.840Z,98092.84
2023-01-30T10:57:42.816Z,98088.63
2023-01-30T11:00:48.429Z,98076.63
2023-01-30T11:03:35.563Z,98065.98
2023-01-30T11:06:26.280Z,98049.61
2023-01-30T11:08:55.446Z,98044.16
2023-01-30T11:11:30.525Z,98039.48
2023-01-30T11:14:10.455Z,98023.48
2023-01-30T11:16:48.232Z,98011.62
2023-01-30T11:19:21.127Z,97999.73
2023-01-30T11:21:52.087Z,97989.61
2023-01-30T11:24:23.623Z,97978.30
2023-01-30T11:26:53.694Z,97958.55
2023-01-30T11:29:30.159Z,97955.72
2023-01-30T11:32:03.876Z,97950.96
2023-01-30T11:34:32.354Z,97951.23
2023-01-30T11:37:25.412Z,97944.76
2023-01-30T11:39:54.004Z,97937.33
2023-01-30T11:42:30.595Z,97933.40
2023-01-30T11:45:16.641Z,97930.14
2023-01-30T11:56:42.988Z,97916.52
2023-01-30T11:59:28.104Z,97919.67
2023-01-30T12:02:24.275Z,97915.45
2023-01-30T12:04:55.897Z,97910.55
2023-01-30T12:07:29.022Z,97905.95
2023-01-30T12:10:27.893Z,97906.77
2023-01-30T12:12:59.014Z,97907.50
2023-01-30T12:15:34.365Z,97903.39
2023-01-30T12:18:39.283Z,97898.87
2023-01-30T12:21:26.709Z,97901.33
2023-01-30T12:24:21.195Z,97903.44
2023-01-30T12:27:02.371Z,97903.56
2023-01-30T12:29:34.335Z,97905.60
2023-01-30T12:32:05.882Z,97906.22
2023-01-30T12:34:34.360Z,97906.56
2023-01-30T12:37:43.904Z,97900.92
2023-01-30T12:40:25.796Z,97893.17
2023-01-30T12:43:00.331Z,97890.44
2023-01-30T12:45:31.458Z,97892.42
2023-01-30T12:48:02.816Z,97892.90
2023-01-30T12:50:55.651Z,97891.10
2023-01-30T12:53:37.956Z,97890.30
2023-01-30T13:04:14.267Z,97870.69
2023-01-30T13:07:01.896Z,97865.05
2023-01-30T13:09:38.672Z,97860.18
2023-01-30T13:12:29.460Z,97863.67
2023-01-30T13:15:18.949Z,97858.52
2023-01-30T13:18:03.958Z,97859.46
2023-01-30T13:20:32.756Z,97852.95
2023-01-30T13:23:19.502Z,97851.86
2023-01-30T13:25:56.278Z,97851.77
2023-01-30T13:28:32.755Z,97850.77
2023-01-30T13:31:03.267Z,97849.23
2023-01-30T13:33:39.717Z,97847.71
2023-01-30T13:36:38.639Z,97844.41
2023-01-30T13:39:56.167Z,97843.42
2023-01-30T13:42:35.687Z,97833.42
2023-01-30T13:45:05.627Z,97828.13
2023-01-30T13:47:40.023Z,97825.76
2023-01-30T13:50:21.769Z,97816.52
2023-01-30T13:53:10.445Z,97816.17
2023-01-30T13:56:16.242Z,97809.71
2023-01-30T13:59:04.033Z,97813.63
2023-01-30T14:02:03.965Z,97815.85
2023-01-30T14:04:42.164Z,97815.31
2023-01-30T14:07:42.109Z,97814.34
2023-01-30T14:10:10.804Z,97807.99
2023-01-30T14:12:49.997Z,97806.58
2023-01-30T14:15:19.339Z,97795.89
2023-01-30T14:17:57.084Z,97800.10
2023-01-30T14:20:30.268Z,97800.02
2023-01-30T14:23:04.705Z,97803.95
2023-01-30T14:25:44.176Z,97801.93
2023-01-30T14:28:12.981Z,97796.91
2023-01-30T14:30:44.859Z,97795.93
2023-01-30T14:33:24.003Z,97791.45
2023-01-30T14:36:01.391Z,97788.85
2023-01-30T14:38:31.929Z,97784.55
2023-01-30T14:41:00.518Z,97786.14
2023-01-30T14:43:42.353Z,97784.66
2023-01-30T14:46:19.840Z,97785.52
2023-01-30T14:48:50.263Z,97785.95
2023-01-30T14:51:40.487Z,97788.18
2023-01-30T14:54:12.266Z,97786.82
2023-01-30T14:56:55.711Z,97790.81
2023-01-30T14:59:24.123Z,97797.48
2023-01-30T15:01:56.706Z,97798.41
2023-01-30T15:04:27.464Z,97798.64
2023-01-30T15:06:57.902Z,97797.25
2023-01-30T15:09:27.462Z,97795.77
2023-01-30T15:12:19.011Z,97792.19
2023-01-30T15:14:59.371Z,97792.04
2023-01-30T15:18:01.947Z,97793.85
2023-01-30T15:20:45.593Z,97798.00
2023-01-30T15:23:57.391Z,97794.36
2023-01-30T15:26:28.884Z,97799.26
2023-01-30T15:29:35.195Z,97800.38
2023-01-30T15:32:15.038Z,97799.74
2023-01-30T15:34:53.873Z,97805.04
2023-01-30T15:37:47.204Z,97808.63
2023-01-30T15:40:15.587Z,97803.24
2023-01-30T15:42:49.832Z,97804.77
2023-01-30T15:46:02.349Z,97808.01
2023-01-30T15:48:41.405Z,97803.71
2023-01-30T15:51:11.881Z,97802.69
2023-01-30T15:53:44.663Z,97803.61
2023-01-30T15:56:18.339Z,97803.27
2023-01-30T15:58:46.671Z,97803.64
2023-01-30T16:01:22.317Z,97805.55
2023-01-30T16:03:51.262Z,97812.95
2023-01-30T16:06:34.510Z,97814.33
2023-01-30T16:09:12.808Z,97813.98
2023-01-30T16:11:42.574Z,97815.91
2023-01-30T16:14:18.194Z,97816.91
2023-01-30T16:17:02.868Z,97811.15
2023-01-30T16:19:32.837Z,97808.25
2023-01-30T16:22:02.682Z,97806.39
2023-01-30T16:24:33.161Z,97801.39
2023-01-30T16:27:06.784Z,97807.00
2023-01-30T16:29:51.363Z,97806.17
2023-01-30T16:32:24.824Z,97804.20
2023-01-30T16:35:31.031Z,97805.45
2023-01-30T16:38:01.113Z,97803.75
2023-01-30T16:40:43.234Z,97805.45
2023-01-30T16:43:23.778Z,97801.50
2023-01-30T16:45:52.571Z,97799.76
2023-01-30T16:48:34.489Z,97795.42
2023-01-30T16:51:11.768Z,97787.70
2023-01-30T16:53:46.563Z,97785.48
2023-01-30T16:56:17.083Z,97782.55
2023-01-30T16:58:48.273Z,97781.52
2023-01-30T17:01:16.976Z,97781.47
2023-01-30T17:03:52.183Z,97789.05
2023-01-30T17:06:24.130Z,97784.20
2023-01-30T17:08:54.433Z,97784.19
2023-01-30T17:11:31.793Z,97779.50
2023-01-30T17:14:26.029Z,97778.10
2023-01-30T17:17:04.872Z,97775.71
2023-01-30T17:19:34.128Z,97774.28
2023-01-30T17:22:04.967Z,97771.70
2023-01-30T17:24:33.208Z,97771.61
2023-01-30T17:27:02.769Z,97768.38
2023-01-30T17:29:48.933Z,97768.73
2023-01-30T17:32:17.499Z,97771.60
2023-01-30T17:34:45.982Z,97773.02
2023-01-30T17:37:20.284Z,97770.23
2023-01-30T17:39:48.679Z,97764.14
2023-01-30T17:42:22.576Z,97759.46
2023-01-30T17:44:51.646Z,97759.60
2023-01-30T17:47:21.251Z,97761.78
2023-01-30T17:49:50.060Z,97755.08
2023-01-30T17:52:19.614Z,97758.20
2023-01-30T17:54:48.640Z,97762.64
2023-01-30T17:57:17.354Z,97759.61
2023-01-30T17:59:47.152Z,97759.10
2023-01-30T18:02:15.635Z,97757.09
2023-01-30T18:04:44.108Z,97760.39
2023-01-30T18:07:14.076Z,97759.70
2023-01-30T18:09:42.808Z,97754.67
2023-01-30T18:12:11.502Z,97757.30
2023-01-30T18:14:40.074Z,97753.54
2023-01-30T18:17:09.694Z,97755.26
2023-01-30T18:19:39.203Z,97758.52
2023-01-30T18:22:07.777Z,97756.42
2023-01-30T18:24:36.652Z,97753.31
2023-01-30T18:27:05.029Z,97755.67
2023-01-30T18:29:33.618Z,97756.98
2023-01-30T18:32:06.084Z,97762.95
2023-01-30T18:34:34.358Z,97759.42
2023-01-30T18:37:02.968Z,97755.13
2023-01-30T18:39:32.347Z,97752.69
2023-01-30T18:42:02.377Z,97749.05
2023-01-30T18:44:30.691Z,97752.48
2023-01-30T18:46:58.970Z,97743.73
2023-01-30T18:49:27.284Z,97743.34
2023-01-30T18:51:55.548Z,97742.48
2023-01-30T18:54:25.059Z,97738.20
2023-01-30T18:56:53.948Z,97742.99
2023-01-30T18:59:26.593Z,97741.96
2023-01-30T19:01:55.512Z,97744.90
2023-01-30T19:04:23.992Z,97742.63
2023-01-30T19:06:54.962Z,97744.83
2023-01-30T19:09:23.304Z,97741.98
2023-01-30T19:12:10.729Z,97741.14
2023-01-30T19:14:40.137Z,97746.35
2023-01-30T19:17:08.818Z,97741.41
2023-01-30T19:19:37.309Z,97739.51
2023-01-30T19:22:05.557Z,97736.08
2023-01-30T19:24:34.087Z,97739.15
2023-01-30T19:27:04.317Z,97737.61
2023-01-30T19:29:33.688Z,97738.42
2023-01-30T19:32:02.635Z,97741.98
2023-01-30T19:34:31.447Z,97742.98
2023-01-30T19:37:01.458Z,97739.84
2023-01-30T19:39:30.055Z,97736.88
2023-01-30T19:41:58.514Z,97739.21
2023-01-30T19:44:26.994Z,97738.15
2023-01-30T19:46:56.090Z,97740.34
2023-01-30T19:49:25.388Z,97739.46
2023-01-30T19:51:54.070Z,97738.92
2023-01-30T19:54:22.551Z,97740.75
2023-01-30T19:56:52.052Z,97744.66
2023-01-30T19:59:20.537Z,97746.36
2023-01-30T20:01:49.636Z,97744.19
2023-01-30T20:04:18.512Z,97747.78
2023-01-30T20:06:49.744Z,97752.71
2023-01-30T20:09:19.478Z,97746.71
2023-01-30T20:11:48.153Z,97754.19
2023-01-30T20:14:16.831Z,97753.96
2023-01-30T20:16:45.833Z,97758.19
2023-01-30T20:19:15.645Z,97756.39
2023-01-30T20:21:44.327Z,97758.81
2023-01-30T20:24:17.341Z,97763.16
2023-01-30T20:26:48.335Z,97760.02
2023-01-30T20:29:18.271Z,97759.44
2023-01-30T20:31:47.380Z,97757.23
2023-01-30T20:34:16.358Z,97756.75
2023-01-30T20:36:44.933Z,97753.79
2023-01-30T20:39:17.293Z,97751.20
2023-01-30T20:41:45.669Z,97750.88
2023-01-30T20:44:14.523Z,97750.88
2023-01-30T20:46:46.063Z,97753.98
2023-01-30T20:49:16.534Z,97752.29
2023-01-30T20:51:46.240Z,97747.16
2023-01-30T20:54:15.140Z,97747.77
2023-01-30T20:56:45.996Z,97747.07
2023-01-30T20:59:19.051Z,97750.27
2023-01-30T21:01:47.631Z,97750.23
2023-01-30T21:04:16.605Z,97750.73
2023-01-30T21:06:46.432Z,97748.81
2023-01-30T21:09:20.788Z,97750.21
2023-01-30T21:11:51.387Z,97758.16
2023-01-30T21:14:20.168Z,97756.30
2023-01-30T21:16:49.731Z,97754.67
2023-01-30T21:19:18.766Z,97750.73
2023-01-30T21:21:51.363Z,97750.20
2023-01-30T21:24:24.972Z,97756.09
2023-01-30T21:26:54.129Z,97756.95
2023-01-30T21:29:24.273Z,97759.20
2023-01-30T21:31:53.507Z,97758.39
2023-01-30T21:34:22.343Z,97754.13
2023-01-30T21:37:22.973Z,97753.03
2023-01-30T21:40:09.887Z,97751.15
2023-01-30T21:42:57.595Z,97753.45
2023-01-30T21:45:26.397Z,97754.52
2023-01-30T21:47:54.973Z,97754.38
2023-01-30T21:50:23.657Z,97749.61
2023-01-30T21:52:52.341Z,97746.36
2023-01-30T21:55:21.423Z,97743.80
2023-01-30T21:57:50.014Z,97750.07
2023-01-30T22:00:18.908Z,97752.92
2023-01-30T22:02:49.840Z,97751.37
2023-01-30T22:05:18.807Z,97747.14
2023-01-30T22:07:47.433Z,97743.83
2023-01-30T22:10:16.608Z,97744.48
2023-01-30T22:12:46.424Z,97741.21
2023-01-30T22:15:15.010Z,97742.16
2023-01-30T22:17:43.888Z,97748.25
2023-01-30T22:20:13.188Z,97752.72
2023-01-30T22:22:41.563Z,97751.02
2023-01-30T22:25:11.892Z,97750.94
2023-01-30T22:27:40.275Z,97750.96
2023-01-30T22:30:09.763Z,97755.11
2023-01-30T22:32:40.812Z,97760.48
2023-01-30T22:35:09.794Z,97755.67
2023-01-30T22:37:38.429Z,97748.41
2023-01-30T22:40:08.185Z,97743.98
2023-01-30T22:42:37.487Z,97742.48
2023-01-30T22:45:06.935Z,97745.90
2023-01-30T22:47:36.035Z,97742.45
2023-01-30T22:50:06.943Z,97747.45
2023-01-30T22:52:35.799Z,97748.70
2023-01-30T22:55:04.597Z,97749.53
2023-01-30T22:57:35.779Z,97747.24
2023-01-30T23:00:05.494Z,97747.60
2023-01-30T23:02:33.867Z,97746.24
2023-01-30T23:05:02.715Z,97748.44
2023-01-30T23:07:32.013Z,97754.02
2023-01-30T23:10:00.481Z,97750.48
2023-01-30T23:12:48.725Z,97751.54
2023-01-30T23:15:17.622Z,97748.83
2023-01-30T23:18:06.479Z,97749.92
2023-01-30T23:20:35.521Z,97754.09
2023-01-30T23:23:07.226Z,97757.95
2023-01-30T23:25:40.346Z,97757.70
2023-01-30T23:28:09.299Z,97755.27
2023-01-30T23:30:39.025Z,97758.55
2023-01-30T23:33:07.791Z,97757.71
2023-01-30T23:35:36.640Z,97757.94
2023-01-30T23:38:17.034Z,97755.33
2023-01-30T23:40:47.366Z,97757.66
2023-01-30T23:43:16.347Z,97756.80
2023-01-30T23:45:45.055Z,97757.83
2023-01-30T23:48:13.528Z,97754.48
2023-01-30T23:50:42.515Z,97759.48
2023-01-30T23:53:10.882Z,97760.13
2023-01-30T23:55:39.883Z,97763.76
2023-01-30T23:58:08.576Z,97761.85
